sensor_id;sensor_type;location;lat;lon;timestamp;pressure;altitude;pressure_sealevel;temperature;humidity
48404;BME280;34202;52.536;6.042;2023-07-22T00:04:23;101441.96;;;15.28;78.57
48404;BME280;34202;52.536;6.042;2023-07-22T00:09:23;101442.13;;;15.30;78.77
48404;BME280;34202;52.536;6.042;2023-07-22T00:14:24;101436.69;;;15.31;78.89
48404;BME280;34202;52.536;6.042;2023-07-22T00:19:24;101437.39;;;15.31;79.03
48404;BME280;34202;52.536;6.042;2023-07-22T00:24:24;101433.02;;;15.28;78.84
48404;BME280;34202;52.536;6.042;2023-07-22T00:29:25;101428.64;;;15.27;78.95
48404;BME280;34202;52.536;6.042;2023-07-22T00:34:26;101428.98;;;15.25;78.92
48404;BME280;34202;52.536;6.042;2023-07-22T00:39:26;101422.88;;;15.23;78.89
48404;BME280;34202;52.536;6.042;2023-07-22T00:44:26;101415.52;;;15.20;79.07
48404;BME280;34202;52.536;6.042;2023-07-22T00:49:28;101418.48;;;15.20;79.11
48404;BME280;34202;52.536;6.042;2023-07-22T00:54:30;101419.20;;;15.17;79.25
48404;BME280;34202;52.536;6.042;2023-07-22T00:59:31;101418.15;;;15.15;79.67
48404;BME280;34202;52.536;6.042;2023-07-22T01:04:33;101410.11;;;15.12;80.14
48404;BME280;34202;52.536;6.042;2023-07-22T01:09:38;101403.29;;;15.06;80.24
48404;BME280;34202;52.536;6.042;2023-07-22T01:14:39;101396.45;;;15.03;80.84
48404;BME280;34202;52.536;6.042;2023-07-22T01:19:41;101398.73;;;14.99;81.32
48404;BME280;34202;52.536;6.042;2023-07-22T01:24:41;101398.94;;;14.93;81.75
48404;BME280;34202;52.536;6.042;2023-07-22T01:29:42;101395.63;;;14.87;81.92
48404;BME280;34202;52.536;6.042;2023-07-22T01:34:43;101397.73;;;14.80;81.90
48404;BME280;34202;52.536;6.042;2023-07-22T01:39:44;101394.77;;;14.72;82.12
48404;BME280;34202;52.536;6.042;2023-07-22T01:44:44;101394.24;;;14.65;82.36
48404;BME280;34202;52.536;6.042;2023-07-22T01:49:44;101390.58;;;14.59;82.68
48404;BME280;34202;52.536;6.042;2023-07-22T01:54:45;101387.05;;;14.54;82.89
48404;BME280;34202;52.536;6.042;2023-07-22T01:59:45;101389.15;;;14.50;83.07
48404;BME280;34202;52.536;6.042;2023-07-22T02:04:46;101385.65;;;14.48;83.58
48404;BME280;34202;52.536;6.042;2023-07-22T02:09:46;101387.05;;;14.45;83.77
48404;BME280;34202;52.536;6.042;2023-07-22T02:14:46;101383.55;;;14.43;83.94
48404;BME280;34202;52.536;6.042;2023-07-22T02:19:47;101381.98;;;14.43;84.31
48404;BME280;34202;52.536;6.042;2023-07-22T02:24:47;101385.84;;;14.43;84.52
48404;BME280;34202;52.536;6.042;2023-07-22T02:29:48;101383.55;;;14.41;84.74
48404;BME280;34202;52.536;6.042;2023-07-22T02:34:48;101375.50;;;14.37;84.93
48404;BME280;34202;52.536;6.042;2023-07-22T02:39:48;101367.98;;;14.31;85.11
48404;BME280;34202;52.536;6.042;2023-07-22T02:44:49;101365.71;;;14.26;85.18
48404;BME280;34202;52.536;6.042;2023-07-22T02:49:49;101364.48;;;14.21;85.29
48404;BME280;34202;52.536;6.042;2023-07-22T02:55:13;101366.58;;;14.17;85.49
48404;BME280;34202;52.536;6.042;2023-07-22T03:00:18;101374.29;;;14.14;85.46
48404;BME280;34202;52.536;6.042;2023-07-22T03:05:25;101378.30;;;14.12;85.40
48404;BME280;34202;52.536;6.042;2023-07-22T03:10:26;101376.73;;;14.10;85.43
48404;BME280;34202;52.536;6.042;2023-07-22T03:15:26;101381.98;;;14.10;85.69
48404;BME280;34202;52.536;6.042;2023-07-22T03:20:28;101374.98;;;14.09;85.78
48404;BME280;34202;52.536;6.042;2023-07-22T03:25:28;101379.35;;;14.09;85.96
48404;BME280;34202;52.536;6.042;2023-07-22T03:30:28;101379.17;;;14.09;86.59
48404;BME280;34202;52.536;6.042;2023-07-22T03:35:29;101381.80;;;14.10;86.71
48404;BME280;34202;52.536;6.042;2023-07-22T03:40:29;101373.92;;;14.11;86.79
48404;BME280;34202;52.536;6.042;2023-07-22T03:45:31;101373.05;;;14.11;87.31
48404;BME280;34202;52.536;6.042;2023-07-22T03:50:31;101373.05;;;14.13;87.54
48404;BME280;34202;52.536;6.042;2023-07-22T03:55:31;101377.42;;;14.15;87.82
48404;BME280;34202;52.536;6.042;2023-07-22T04:00:32;101383.38;;;14.17;87.81
48404;BME280;34202;52.536;6.042;2023-07-22T04:05:32;101384.95;;;14.19;88.19
48404;BME280;34202;52.536;6.042;2023-07-22T04:10:33;101382.86;;;14.20;88.17
48404;BME280;34202;52.536;6.042;2023-07-22T04:15:33;101383.91;;;14.22;88.47
48404;BME280;34202;52.536;6.042;2023-07-22T04:20:33;101380.06;;;14.23;88.69
48404;BME280;34202;52.536;6.042;2023-07-22T04:25:39;101379.70;;;14.26;89.07
48404;BME280;34202;52.536;6.042;2023-07-22T04:30:39;101382.52;;;14.28;89.49
48404;BME280;34202;52.536;6.042;2023-07-22T04:35:40;101384.60;;;14.31;89.73
48404;BME280;34202;52.536;6.042;2023-07-22T04:40:44;101382.87;;;14.34;89.91
48404;BME280;34202;52.536;6.042;2023-07-22T04:45:45;101370.43;;;14.37;90.01
48404;BME280;34202;52.536;6.042;2023-07-22T04:50:48;101368.33;;;14.40;90.43
48404;BME280;34202;52.536;6.042;2023-07-22T04:55:48;101368.14;;;14.44;90.99
48404;BME280;34202;52.536;6.042;2023-07-22T05:00:48;101376.73;;;14.46;91.30
48404;BME280;34202;52.536;6.042;2023-07-22T05:05:49;101379.19;;;14.46;91.25
48404;BME280;34202;52.536;6.042;2023-07-22T05:10:49;101365.70;;;14.47;91.46
48404;BME280;34202;52.536;6.042;2023-07-22T05:15:50;101370.59;;;14.51;91.76
48404;BME280;34202;52.536;6.042;2023-07-22T05:20:50;101376.20;;;14.56;92.45
48404;BME280;34202;52.536;6.042;2023-07-22T05:25:52;101377.79;;;14.62;92.52
48404;BME280;34202;52.536;6.042;2023-07-22T05:30:52;101379.54;;;14.67;92.72
48404;BME280;34202;52.536;6.042;2023-07-22T05:35:52;101375.50;;;14.73;92.85
48404;BME280;34202;52.536;6.042;2023-07-22T05:40:53;101371.98;;;14.80;93.09
48404;BME280;34202;52.536;6.042;2023-07-22T05:45:53;101377.93;;;14.83;93.06
48404;BME280;34202;52.536;6.042;2023-07-22T05:50:54;101378.45;;;14.87;92.94
48404;BME280;34202;52.536;6.042;2023-07-22T05:55:54;101371.23;;;14.92;93.12
48404;BME280;34202;52.536;6.042;2023-07-22T06:00:55;101365.27;;;14.95;93.28
48404;BME280;34202;52.536;6.042;2023-07-22T06:05:56;101365.79;;;15.00;93.59
48404;BME280;34202;52.536;6.042;2023-07-22T06:10:56;101370.85;;;15.05;93.67
48404;BME280;34202;52.536;6.042;2023-07-22T06:15:57;101376.62;;;15.12;93.78
48404;BME280;34202;52.536;6.042;2023-07-22T06:20:57;101375.37;;;15.20;94.03
48404;BME280;34202;52.536;6.042;2023-07-22T06:25:58;101370.77;;;15.27;93.99
48404;BME280;34202;52.536;6.042;2023-07-22T06:30:58;101367.93;;;15.34;93.91
48404;BME280;34202;52.536;6.042;2023-07-22T06:35:59;101368.08;;;15.42;94.03
48404;BME280;34202;52.536;6.042;2023-07-22T06:40:59;101364.54;;;15.49;94.12
48404;BME280;34202;52.536;6.042;2023-07-22T06:46:00;101362.03;;;15.58;94.14
48404;BME280;34202;52.536;6.042;2023-07-22T06:51:00;101365.83;;;15.68;94.43
48404;BME280;34202;52.536;6.042;2023-07-22T06:56:00;101368.77;;;15.80;94.45
48404;BME280;34202;52.536;6.042;2023-07-22T07:01:01;101365.88;;;15.93;94.64
48404;BME280;34202;52.536;6.042;2023-07-22T07:06:01;101360.49;;;16.09;94.85
48404;BME280;34202;52.536;6.042;2023-07-22T07:11:02;101357.19;;;16.26;94.96
48404;BME280;34202;52.536;6.042;2023-07-22T07:16:25;101362.28;;;16.46;94.92
48404;BME280;34202;52.536;6.042;2023-07-22T07:21:26;101363.35;;;16.62;94.24
48404;BME280;34202;52.536;6.042;2023-07-22T07:26:27;101358.14;;;16.74;93.61
48404;BME280;34202;52.536;6.042;2023-07-22T07:31:27;101352.58;;;16.87;93.17
48404;BME280;34202;52.536;6.042;2023-07-22T07:36:28;101358.73;;;17.03;92.86
48404;BME280;34202;52.536;6.042;2023-07-22T07:41:28;101358.88;;;17.20;92.46
48404;BME280;34202;52.536;6.042;2023-07-22T07:46:29;101365.89;;;17.36;92.16
48404;BME280;34202;52.536;6.042;2023-07-22T07:51:30;101361.77;;;17.54;92.25
48404;BME280;34202;52.536;6.042;2023-07-22T07:56:31;101360.58;;;17.76;91.99
48404;BME280;34202;52.536;6.042;2023-07-22T08:01:31;101352.66;;;18.01;91.36
48404;BME280;34202;52.536;6.042;2023-07-22T08:06:32;101347.40;;;18.21;90.55
48404;BME280;34202;52.536;6.042;2023-07-22T08:11:33;101344.86;;;18.45;89.98
48404;BME280;34202;52.536;6.042;2023-07-22T08:16:33;101346.06;;;18.67;88.77
48404;BME280;34202;52.536;6.042;2023-07-22T08:21:34;101345.31;;;18.79;87.12
48404;BME280;34202;52.536;6.042;2023-07-22T08:26:34;101344.86;;;18.85;85.40
48404;BME280;34202;52.536;6.042;2023-07-22T08:31:34;101344.59;;;18.90;84.82
48404;BME280;34202;52.536;6.042;2023-07-22T08:36:36;101343.59;;;18.96;84.51
48404;BME280;34202;52.536;6.042;2023-07-22T08:41:36;101343.15;;;19.00;84.64
48404;BME280;34202;52.536;6.042;2023-07-22T08:46:38;101342.14;;;19.06;84.99
48404;BME280;34202;52.536;6.042;2023-07-22T08:51:39;101338.61;;;19.15;85.38
48404;BME280;34202;52.536;6.042;2023-07-22T08:56:41;101336.89;;;19.21;85.31
48404;BME280;34202;52.536;6.042;2023-07-22T09:01:43;101330.45;;;19.33;85.93
48404;BME280;34202;52.536;6.042;2023-07-22T09:06:44;101333.05;;;19.52;85.84
48404;BME280;34202;52.536;6.042;2023-07-22T09:11:46;101326.49;;;19.60;84.47
48404;BME280;34202;52.536;6.042;2023-07-22T09:16:47;101326.36;;;19.66;83.60
48404;BME280;34202;52.536;6.042;2023-07-22T09:21:47;101317.31;;;19.77;83.34
48404;BME280;34202;52.536;6.042;2023-07-22T09:26:48;101314.39;;;19.88;82.97
48404;BME280;34202;52.536;6.042;2023-07-22T09:31:53;101311.23;;;20.02;82.53
48404;BME280;34202;52.536;6.042;2023-07-22T09:36:56;101315.80;;;20.09;80.88
48404;BME280;34202;52.536;6.042;2023-07-22T09:41:56;101312.24;;;20.10;79.25
48404;BME280;34202;52.536;6.042;2023-07-22T09:47:05;101309.78;;;20.17;78.56
48404;BME280;34202;52.536;6.042;2023-07-22T09:52:10;101304.95;;;20.26;77.62
48404;BME280;34202;52.536;6.042;2023-07-22T09:57:14;101295.80;;;20.38;77.65
48404;BME280;34202;52.536;6.042;2023-07-22T10:02:18;101288.93;;;20.50;76.67
48404;BME280;34202;52.536;6.042;2023-07-22T10:07:19;101289.69;;;20.55;75.80
48404;BME280;34202;52.536;6.042;2023-07-22T10:12:21;101289.86;;;20.48;74.30
48404;BME280;34202;52.536;6.042;2023-07-22T10:17:22;101306.34;;;20.40;73.73
48404;BME280;34202;52.536;6.042;2023-07-22T10:22:22;101330.54;;;20.20;73.39
48404;BME280;34202;52.536;6.042;2023-07-22T10:27:23;101326.86;;;19.83;74.13
48404;BME280;34202;52.536;6.042;2023-07-22T10:32:24;101320.94;;;19.56;75.15
48404;BME280;34202;52.536;6.042;2023-07-22T10:37:33;101323.41;;;19.40;76.15
48404;BME280;34202;52.536;6.042;2023-07-22T10:42:34;101337.78;;;19.29;77.22
48404;BME280;34202;52.536;6.042;2023-07-22T10:47:35;101346.26;;;19.12;77.44
48404;BME280;34202;52.536;6.042;2023-07-22T10:52:45;101342.58;;;18.93;78.62
48404;BME280;34202;52.536;6.042;2023-07-22T10:57:48;101340.13;;;18.83;79.87
48404;BME280;34202;52.536;6.042;2023-07-22T11:03:12;101343.20;;;18.77;80.68
48404;BME280;34202;52.536;6.042;2023-07-22T11:08:13;101340.27;;;18.65;80.61
48404;BME280;34202;52.536;6.042;2023-07-22T11:13:14;101332.00;;;18.54;80.99
48404;BME280;34202;52.536;6.042;2023-07-22T11:18:14;101331.08;;;18.48;81.28
48404;BME280;34202;52.536;6.042;2023-07-22T11:23:15;101324.20;;;18.48;82.02
48404;BME280;34202;52.536;6.042;2023-07-22T11:28:15;101326.13;;;18.48;82.65
48404;BME280;34202;52.536;6.042;2023-07-22T11:33:16;101333.48;;;18.40;82.57
48404;BME280;34202;52.536;6.042;2023-07-22T11:38:16;101342.70;;;18.27;82.67
48404;BME280;34202;52.536;6.042;2023-07-22T11:43:16;101335.53;;;18.14;83.09
48404;BME280;34202;52.536;6.042;2023-07-22T11:48:17;101327.36;;;18.07;84.12
48404;BME280;34202;52.536;6.042;2023-07-22T11:53:17;101327.73;;;18.06;84.90
48404;BME280;34202;52.536;6.042;2023-07-22T11:58:28;101326.73;;;18.03;84.92
48404;BME280;34202;52.536;6.042;2023-07-22T12:03:34;101334.76;;;17.97;85.10
48404;BME280;34202;52.536;6.042;2023-07-22T12:08:35;101332.41;;;17.90;85.54
48404;BME280;34202;52.536;6.042;2023-07-22T12:13:38;101338.48;;;17.82;85.80
48404;BME280;34202;52.536;6.042;2023-07-22T12:18:45;101343.84;;;17.76;86.38
48404;BME280;34202;52.536;6.042;2023-07-22T12:23:46;101334.69;;;17.65;86.35
48404;BME280;34202;52.536;6.042;2023-07-22T12:28:46;101324.75;;;17.59;86.90
48404;BME280;34202;52.536;6.042;2023-07-22T12:33:47;101323.16;;;17.58;87.59
48404;BME280;34202;52.536;6.042;2023-07-22T12:38:47;101327.73;;;17.60;87.99
48404;BME280;34202;52.536;6.042;2023-07-22T12:43:47;101328.23;;;17.61;88.50
48404;BME280;34202;52.536;6.042;2023-07-22T12:48:49;101325.93;;;17.62;89.07
48404;BME280;34202;52.536;6.042;2023-07-22T12:53:49;101317.64;;;17.63;89.58
48404;BME280;34202;52.536;6.042;2023-07-22T12:58:50;101313.43;;;17.74;90.58
48404;BME280;34202;52.536;6.042;2023-07-22T13:03:51;101310.64;;;17.85;90.68
48404;BME280;34202;52.536;6.042;2023-07-22T13:08:51;101310.11;;;17.97;91.43
48404;BME280;34202;52.536;6.042;2023-07-22T13:13:52;101316.55;;;18.12;91.64
48404;BME280;34202;52.536;6.042;2023-07-22T13:18:52;101308.08;;;18.23;91.30
48404;BME280;34202;52.536;6.042;2023-07-22T13:23:52;101303.15;;;18.32;90.98
48404;BME280;34202;52.536;6.042;2023-07-22T13:28:53;101297.06;;;18.38;90.34
48404;BME280;34202;52.536;6.042;2023-07-22T13:33:53;101292.45;;;18.40;89.88
48404;BME280;34202;52.536;6.042;2023-07-22T13:38:53;101288.15;;;18.53;90.70
48404;BME280;34202;52.536;6.042;2023-07-22T13:43:54;101288.71;;;18.69;90.69
48404;BME280;34202;52.536;6.042;2023-07-22T13:48:54;101283.86;;;18.84;90.31
48404;BME280;34202;52.536;6.042;2023-07-22T13:53:54;101285.21;;;18.87;89.07
48404;BME280;34202;52.536;6.042;2023-07-22T13:58:55;101284.40;;;18.84;88.25
48404;BME280;34202;52.536;6.042;2023-07-22T14:03:55;101286.91;;;18.80;88.01
48404;BME280;34202;52.536;6.042;2023-07-22T14:08:55;101285.73;;;18.77;87.62
48404;BME280;34202;52.536;6.042;2023-07-22T14:13:56;101284.70;;;18.75;87.67
48404;BME280;34202;52.536;6.042;2023-07-22T14:18:56;101294.29;;;18.72;87.68
48404;BME280;34202;52.536;6.042;2023-07-22T14:23:57;101288.95;;;18.67;88.05
48404;BME280;34202;52.536;6.042;2023-07-22T14:28:57;101287.41;;;18.63;88.34
48404;BME280;34202;52.536;6.042;2023-07-22T14:33:57;101284.33;;;18.59;88.31
48404;BME280;34202;52.536;6.042;2023-07-22T14:38:58;101284.83;;;18.51;88.15
48404;BME280;34202;52.536;6.042;2023-07-22T14:43:58;101284.30;;;18.42;88.39
48404;BME280;34202;52.536;6.042;2023-07-22T14:48:59;101285.52;;;18.33;88.51
48404;BME280;34202;52.536;6.042;2023-07-22T14:53:59;101292.92;;;18.24;88.76
48404;BME280;34202;52.536;6.042;2023-07-22T14:58:59;101301.45;;;18.19;89.27
48404;BME280;34202;52.536;6.042;2023-07-22T15:04:00;101294.30;;;18.15;89.43
48404;BME280;34202;52.536;6.042;2023-07-22T15:09:01;101290.02;;;18.08;89.76
48404;BME280;34202;52.536;6.042;2023-07-22T15:14:03;101273.07;;;18.01;89.98
48404;BME280;34202;52.536;6.042;2023-07-22T15:19:04;101260.55;;;18.01;90.81
48404;BME280;34202;52.536;6.042;2023-07-22T15:24:04;101255.20;;;18.05;91.13
48404;BME280;34202;52.536;6.042;2023-07-22T15:29:05;101254.20;;;18.11;91.49
48404;BME280;34202;52.536;6.042;2023-07-22T15:34:05;101251.26;;;18.18;91.54
48404;BME280;34202;52.536;6.042;2023-07-22T15:39:06;101253.27;;;18.24;91.24
48404;BME280;34202;52.536;6.042;2023-07-22T15:44:06;101253.94;;;18.26;91.05
48404;BME280;34202;52.536;6.042;2023-07-22T15:49:06;101250.55;;;18.28;90.95
48404;BME280;34202;52.536;6.042;2023-07-22T15:54:07;101246.47;;;18.29;90.61
48404;BME280;34202;52.536;6.042;2023-07-22T15:59:07;101247.51;;;18.31;90.64
48404;BME280;34202;52.536;6.042;2023-07-22T16:04:08;101239.34;;;18.34;90.75
48404;BME280;34202;52.536;6.042;2023-07-22T16:09:08;101232.92;;;18.38;90.72
48404;BME280;34202;52.536;6.042;2023-07-22T16:14:08;101230.08;;;18.40;90.27
48404;BME280;34202;52.536;6.042;2023-07-22T16:19:09;101229.84;;;18.42;90.22
48404;BME280;34202;52.536;6.042;2023-07-22T16:24:10;101227.32;;;18.46;90.33
48404;BME280;34202;52.536;6.042;2023-07-22T16:29:10;101231.53;;;18.46;89.86
48404;BME280;34202;52.536;6.042;2023-07-22T16:34:10;101230.35;;;18.43;89.52
48404;BME280;34202;52.536;6.042;2023-07-22T16:39:11;101231.48;;;18.40;89.22
48404;BME280;34202;52.536;6.042;2023-07-22T16:44:11;101217.84;;;18.34;88.86
48404;BME280;34202;52.536;6.042;2023-07-22T16:49:12;101214.21;;;18.30;88.88
48404;BME280;34202;52.536;6.042;2023-07-22T16:54:12;101215.86;;;18.27;88.59
48404;BME280;34202;52.536;6.042;2023-07-22T16:59:13;101208.55;;;18.22;88.63
48404;BME280;34202;52.536;6.042;2023-07-22T17:04:14;101208.08;;;18.20;88.73
48404;BME280;34202;52.536;6.042;2023-07-22T17:09:14;101205.83;;;18.18;88.91
48404;BME280;34202;52.536;6.042;2023-07-22T17:14:14;101202.46;;;18.19;88.93
48404;BME280;34202;52.536;6.042;2023-07-22T17:19:15;101199.46;;;18.19;88.92
48404;BME280;34202;52.536;6.042;2023-07-22T17:24:15;101193.46;;;18.19;88.83
48404;BME280;34202;52.536;6.042;2023-07-22T17:29:15;101192.26;;;18.18;88.59
48404;BME280;34202;52.536;6.042;2023-07-22T17:34:16;101185.95;;;18.16;88.49
48404;BME280;34202;52.536;6.042;2023-07-22T17:39:16;101182.81;;;18.14;88.46
48404;BME280;34202;52.536;6.042;2023-07-22T17:44:16;101180.89;;;18.14;88.27
48404;BME280;34202;52.536;6.042;2023-07-22T17:49:17;101176.48;;;18.14;88.27
48404;BME280;34202;52.536;6.042;2023-07-22T17:54:18;101175.66;;;18.11;87.86
48404;BME280;34202;52.536;6.042;2023-07-22T17:59:18;101167.30;;;18.05;87.66
48404;BME280;34202;52.536;6.042;2023-07-22T18:04:18;101167.75;;;18.02;87.50
48404;BME280;34202;52.536;6.042;2023-07-22T18:09:19;101159.71;;;17.97;87.49
48404;BME280;34202;52.536;6.042;2023-07-22T18:14:19;101163.12;;;17.94;87.38
48404;BME280;34202;52.536;6.042;2023-07-22T18:19:20;101162.13;;;17.91;87.44
48404;BME280;34202;52.536;6.042;2023-07-22T18:24:20;101156.73;;;17.87;87.38
48404;BME280;34202;52.536;6.042;2023-07-22T18:29:20;101156.61;;;17.83;87.58
48404;BME280;34202;52.536;6.042;2023-07-22T18:34:21;101151.90;;;17.80;87.81
48404;BME280;34202;52.536;6.042;2023-07-22T18:39:22;101148.43;;;17.77;87.95
48404;BME280;34202;52.536;6.042;2023-07-22T18:44:23;101145.02;;;17.72;87.89
48404;BME280;34202;52.536;6.042;2023-07-22T18:49:23;101148.25;;;17.68;88.21
48404;BME280;34202;52.536;6.042;2023-07-22T18:54:24;101151.10;;;17.66;88.31
48404;BME280;34202;52.536;6.042;2023-07-22T18:59:24;101152.11;;;17.59;88.49
48404;BME280;34202;52.536;6.042;2023-07-22T19:04:25;101158.54;;;17.53;88.84
48404;BME280;34202;52.536;6.042;2023-07-22T19:09:25;101162.01;;;17.46;89.29
48404;BME280;34202;52.536;6.042;2023-07-22T19:14:26;101163.02;;;17.37;89.74
48404;BME280;34202;52.536;6.042;2023-07-22T19:19:26;101162.23;;;17.32;90.34
48404;BME280;34202;52.536;6.042;2023-07-22T19:24:27;101157.91;;;17.27;90.70
48404;BME280;34202;52.536;6.042;2023-07-22T19:29:27;101161.86;;;17.22;91.05
48404;BME280;34202;52.536;6.042;2023-07-22T19:34:29;101162.14;;;17.15;91.53
48404;BME280;34202;52.536;6.042;2023-07-22T19:39:31;101166.12;;;17.08;92.04
48404;BME280;34202;52.536;6.042;2023-07-22T19:44:31;101169.04;;;17.00;92.47
48404;BME280;34202;52.536;6.042;2023-07-22T19:49:31;101169.83;;;16.94;93.00
48404;BME280;34202;52.536;6.042;2023-07-22T19:54:32;101171.20;;;16.84;93.37
48404;BME280;34202;52.536;6.042;2023-07-22T19:59:32;101174.98;;;16.75;93.98
48404;BME280;34202;52.536;6.042;2023-07-22T20:04:33;101174.91;;;16.68;94.53
48404;BME280;34202;52.536;6.042;2023-07-22T20:09:34;101170.39;;;16.64;94.93
48404;BME280;34202;52.536;6.042;2023-07-22T20:14:34;101172.19;;;16.62;95.34
48404;BME280;34202;52.536;6.042;2023-07-22T20:19:34;101172.20;;;16.59;95.71
48404;BME280;34202;52.536;6.042;2023-07-22T20:24:35;101163.98;;;16.57;95.99
48404;BME280;34202;52.536;6.042;2023-07-22T20:29:38;101165.27;;;16.53;96.14
48404;BME280;34202;52.536;6.042;2023-07-22T20:34:38;101162.52;;;16.48;96.21
48404;BME280;34202;52.536;6.042;2023-07-22T20:39:39;101155.71;;;16.44;96.37
48404;BME280;34202;52.536;6.042;2023-07-22T20:44:39;101151.73;;;16.39;96.36
48404;BME280;34202;52.536;6.042;2023-07-22T20:49:41;101146.36;;;16.33;96.62
48404;BME280;34202;52.536;6.042;2023-07-22T20:54:45;101143.27;;;16.28;96.87
48404;BME280;34202;52.536;6.042;2023-07-22T20:59:46;101142.80;;;16.23;97.01
48404;BME280;34202;52.536;6.042;2023-07-22T21:04:47;101143.21;;;16.17;96.85
48404;BME280;34202;52.536;6.042;2023-07-22T21:09:48;101137.48;;;16.12;96.90
48404;BME280;34202;52.536;6.042;2023-07-22T21:14:48;101133.88;;;16.05;96.86
48404;BME280;34202;52.536;6.042;2023-07-22T21:19:49;101129.91;;;15.99;96.96
48404;BME280;34202;52.536;6.042;2023-07-22T21:24:49;101131.89;;;15.94;97.01
48404;BME280;34202;52.536;6.042;2023-07-22T21:29:50;101128.98;;;15.88;97.10
48404;BME280;34202;52.536;6.042;2023-07-22T21:34:50;101124.13;;;15.81;97.33
48404;BME280;34202;52.536;6.042;2023-07-22T21:39:50;101117.50;;;15.76;97.57
48404;BME280;34202;52.536;6.042;2023-07-22T21:44:51;101110.51;;;15.73;97.85
48404;BME280;34202;52.536;6.042;2023-07-22T21:49:51;101105.80;;;15.68;98.15
48404;BME280;34202;52.536;6.042;2023-07-22T21:54:52;101101.64;;;15.63;98.32
48404;BME280;34202;52.536;6.042;2023-07-22T21:59:52;101100.80;;;15.60;98.56
48404;BME280;34202;52.536;6.042;2023-07-22T22:04:53;101093.82;;;15.55;98.70
48404;BME280;34202;52.536;6.042;2023-07-22T22:09:56;101093.14;;;15.53;98.87
48404;BME280;34202;52.536;6.042;2023-07-22T22:14:56;101084.20;;;15.52;99.05
48404;BME280;34202;52.536;6.042;2023-07-22T22:19:57;101077.73;;;15.50;99.17
48404;BME280;34202;52.536;6.042;2023-07-22T22:24:57;101073.73;;;15.48;99.15
48404;BME280;34202;52.536;6.042;2023-07-22T22:29:57;101068.31;;;15.45;99.24
48404;BME280;34202;52.536;6.042;2023-07-22T22:34:58;101069.02;;;15.44;99.39
48404;BME280;34202;52.536;6.042;2023-07-22T22:39:58;101067.81;;;15.42;99.49
48404;BME280;34202;52.536;6.042;2023-07-22T22:44:58;101053.81;;;15.39;99.54
48404;BME280;34202;52.536;6.042;2023-07-22T22:49:59;101048.56;;;15.38;99.79
48404;BME280;34202;52.536;6.042;2023-07-22T22:54:59;101041.22;;;15.37;99.92
48404;BME280;34202;52.536;6.042;2023-07-22T22:59:59;101038.39;;;15.38;100.00
48404;BME280;34202;52.536;6.042;2023-07-22T23:05:00;101033.14;;;15.37;100.00
48404;BME280;34202;52.536;6.042;2023-07-22T23:10:00;101019.64;;;15.37;100.00
48404;BME280;34202;52.536;6.042;2023-07-22T23:15:01;101014.55;;;15.37;100.00
48404;BME280;34202;52.536;6.042;2023-07-22T23:20:02;101015.61;;;15.36;100.00
48404;BME280;34202;52.536;6.042;2023-07-22T23:25:04;101013.00;;;15.35;100.00
48404;BME280;34202;52.536;6.042;2023-07-22T23:30:05;101009.15;;;15.34;100.00
48404;BME280;34202;52.536;6.042;2023-07-22T23:35:06;101000.74;;;15.33;100.00
48404;BME280;34202;52.536;6.042;2023-07-22T23:40:07;100999.70;;;15.32;100.00
48404;BME280;34202;52.536;6.042;2023-07-22T23:45:08;100989.53;;;15.32;100.00
48404;BME280;34202;52.536;6.042;2023-07-22T23:50:09;100981.64;;;15.32;100.00
48404;BME280;34202;52.536;6.042;2023-07-22T23:55:10;100978.83;;;15.32;100.00
